sensor_id;sensor_type;location;lat;lon;timestamp;P1;durP1;ratioP1;P2;durP2;ratioP2
23088;SDS011;11713;48.506;8.966;2023-12-20T00:01:50;3.97;;;2.70;;
23088;SDS011;11713;48.506;8.966;2023-12-20T00:04:18;3.80;;;2.60;;
23088;SDS011;11713;48.506;8.966;2023-12-20T00:06:44;7.87;;;4.20;;
23088;SDS011;11713;48.506;8.966;2023-12-20T00:09:10;17.80;;;7.60;;
23088;SDS011;11713;48.506;8.966;2023-12-20T00:11:36;9.20;;;4.50;;
23088;SDS011;11713;48.506;8.966;2023-12-20T00:14:03;4.87;;;2.90;;
23088;SDS011;11713;48.506;8.966;2023-12-20T00:16:29;4.10;;;2.10;;
23088;SDS011;11713;48.506;8.966;2023-12-20T00:18:56;4.10;;;2.00;;
23088;SDS011;11713;48.506;8.966;2023-12-20T00:21:22;3.03;;;1.53;;
23088;SDS011;11713;48.506;8.966;2023-12-20T00:23:49;1.90;;;1.53;;
23088;SDS011;11713;48.506;8.966;2023-12-20T00:26:14;2.27;;;1.77;;
23088;SDS011;11713;48.506;8.966;2023-12-20T00:28:40;2.83;;;2.00;;
23088;SDS011;11713;48.506;8.966;2023-12-20T00:31:07;2.27;;;1.80;;
23088;SDS011;11713;48.506;8.966;2023-12-20T00:33:33;2.33;;;1.90;;
23088;SDS011;11713;48.506;8.966;2023-12-20T00:35:59;3.27;;;2.03;;
23088;SDS011;11713;48.506;8.966;2023-12-20T00:38:25;2.80;;;2.40;;
23088;SDS011;11713;48.506;8.966;2023-12-20T00:40:52;3.60;;;3.00;;
23088;SDS011;11713;48.506;8.966;2023-12-20T00:43:17;4.00;;;2.80;;
23088;SDS011;11713;48.506;8.966;2023-12-20T00:45:43;4.73;;;2.73;;
23088;SDS011;11713;48.506;8.966;2023-12-20T00:48:09;4.23;;;2.60;;
23088;SDS011;11713;48.506;8.966;2023-12-20T00:50:35;2.20;;;1.57;;
23088;SDS011;11713;48.506;8.966;2023-12-20T00:53:01;2.63;;;1.93;;
23088;SDS011;11713;48.506;8.966;2023-12-20T00:55:26;2.67;;;1.73;;
23088;SDS011;11713;48.506;8.966;2023-12-20T00:57:52;3.07;;;2.00;;
23088;SDS011;11713;48.506;8.966;2023-12-20T01:00:19;2.83;;;1.87;;
23088;SDS011;11713;48.506;8.966;2023-12-20T01:02:45;2.43;;;1.80;;
23088;SDS011;11713;48.506;8.966;2023-12-20T01:05:14;1.60;;;1.40;;
23088;SDS011;11713;48.506;8.966;2023-12-20T01:07:40;1.50;;;1.07;;
23088;SDS011;11713;48.506;8.966;2023-12-20T01:10:05;1.20;;;1.10;;
23088;SDS011;11713;48.506;8.966;2023-12-20T01:12:31;1.67;;;1.20;;
23088;SDS011;11713;48.506;8.966;2023-12-20T01:14:57;1.20;;;1.10;;
23088;SDS011;11713;48.506;8.966;2023-12-20T01:17:23;1.77;;;0.80;;
23088;SDS011;11713;48.506;8.966;2023-12-20T01:19:49;1.97;;;0.60;;
23088;SDS011;11713;48.506;8.966;2023-12-20T01:22:15;0.80;;;0.80;;
23088;SDS011;11713;48.506;8.966;2023-12-20T01:24:41;1.07;;;0.97;;
23088;SDS011;11713;48.506;8.966;2023-12-20T01:27:07;0.70;;;0.70;;
23088;SDS011;11713;48.506;8.966;2023-12-20T01:29:33;1.03;;;0.70;;
23088;SDS011;11713;48.506;8.966;2023-12-20T01:31:59;1.10;;;0.90;;
23088;SDS011;11713;48.506;8.966;2023-12-20T01:34:25;1.27;;;0.60;;
23088;SDS011;11713;48.506;8.966;2023-12-20T01:36:51;1.20;;;0.87;;
23088;SDS011;11713;48.506;8.966;2023-12-20T01:39:17;0.73;;;0.70;;
23088;SDS011;11713;48.506;8.966;2023-12-20T01:41:43;1.17;;;0.73;;
23088;SDS011;11713;48.506;8.966;2023-12-20T01:44:09;0.80;;;0.80;;
23088;SDS011;11713;48.506;8.966;2023-12-20T01:46:35;1.10;;;1.00;;
23088;SDS011;11713;48.506;8.966;2023-12-20T01:49:00;2.17;;;1.00;;
23088;SDS011;11713;48.506;8.966;2023-12-20T01:51:26;1.77;;;0.93;;
23088;SDS011;11713;48.506;8.966;2023-12-20T01:53:54;1.27;;;0.73;;
23088;SDS011;11713;48.506;8.966;2023-12-20T01:56:21;1.23;;;0.70;;
23088;SDS011;11713;48.506;8.966;2023-12-20T01:58:48;0.60;;;0.60;;
23088;SDS011;11713;48.506;8.966;2023-12-20T02:01:14;0.70;;;0.70;;
23088;SDS011;11713;48.506;8.966;2023-12-20T02:03:41;1.10;;;1.00;;
23088;SDS011;11713;48.506;8.966;2023-12-20T02:06:07;2.13;;;1.00;;
23088;SDS011;11713;48.506;8.966;2023-12-20T02:08:34;0.77;;;0.77;;
23088;SDS011;11713;48.506;8.966;2023-12-20T02:11:01;1.57;;;1.10;;
23088;SDS011;11713;48.506;8.966;2023-12-20T02:13:27;1.63;;;0.90;;
23088;SDS011;11713;48.506;8.966;2023-12-20T02:15:56;1.63;;;0.90;;
23088;SDS011;11713;48.506;8.966;2023-12-20T02:18:22;1.83;;;1.00;;
23088;SDS011;11713;48.506;8.966;2023-12-20T02:20:48;0.80;;;0.80;;
23088;SDS011;11713;48.506;8.966;2023-12-20T02:23:14;1.23;;;0.90;;
23088;SDS011;11713;48.506;8.966;2023-12-20T02:25:40;0.90;;;0.80;;
23088;SDS011;11713;48.506;8.966;2023-12-20T02:28:06;1.33;;;0.90;;
23088;SDS011;11713;48.506;8.966;2023-12-20T02:30:32;1.13;;;0.90;;
23088;SDS011;11713;48.506;8.966;2023-12-20T02:32:59;2.50;;;1.00;;
23088;SDS011;11713;48.506;8.966;2023-12-20T02:35:26;1.10;;;0.90;;
23088;SDS011;11713;48.506;8.966;2023-12-20T02:37:54;1.23;;;1.10;;
23088;SDS011;11713;48.506;8.966;2023-12-20T02:40:20;1.60;;;1.50;;
23088;SDS011;11713;48.506;8.966;2023-12-20T02:42:46;1.10;;;1.10;;
23088;SDS011;11713;48.506;8.966;2023-12-20T02:45:11;1.20;;;0.90;;
23088;SDS011;11713;48.506;8.966;2023-12-20T02:47:37;1.30;;;0.90;;
23088;SDS011;11713;48.506;8.966;2023-12-20T02:50:03;1.33;;;1.00;;
23088;SDS011;11713;48.506;8.966;2023-12-20T02:52:29;0.73;;;0.73;;
23088;SDS011;11713;48.506;8.966;2023-12-20T02:54:55;1.00;;;0.90;;
23088;SDS011;11713;48.506;8.966;2023-12-20T02:57:21;0.87;;;0.80;;
23088;SDS011;11713;48.506;8.966;2023-12-20T02:59:47;1.53;;;0.90;;
23088;SDS011;11713;48.506;8.966;2023-12-20T03:02:13;0.80;;;0.70;;
23088;SDS011;11713;48.506;8.966;2023-12-20T03:04:39;1.03;;;0.77;;
23088;SDS011;11713;48.506;8.966;2023-12-20T03:07:05;1.20;;;1.00;;
23088;SDS011;11713;48.506;8.966;2023-12-20T03:09:31;1.23;;;0.90;;
23088;SDS011;11713;48.506;8.966;2023-12-20T03:11:57;0.90;;;0.90;;
23088;SDS011;11713;48.506;8.966;2023-12-20T03:14:23;1.03;;;0.93;;
23088;SDS011;11713;48.506;8.966;2023-12-20T03:16:49;1.03;;;0.90;;
23088;SDS011;11713;48.506;8.966;2023-12-20T03:19:15;0.70;;;0.70;;
23088;SDS011;11713;48.506;8.966;2023-12-20T03:21:41;1.00;;;0.80;;
23088;SDS011;11713;48.506;8.966;2023-12-20T03:24:07;0.70;;;0.70;;
23088;SDS011;11713;48.506;8.966;2023-12-20T03:26:33;0.70;;;0.70;;
23088;SDS011;11713;48.506;8.966;2023-12-20T03:28:59;1.33;;;0.70;;
23088;SDS011;11713;48.506;8.966;2023-12-20T03:31:24;1.43;;;0.40;;
23088;SDS011;11713;48.506;8.966;2023-12-20T03:33:50;0.83;;;0.50;;
23088;SDS011;11713;48.506;8.966;2023-12-20T03:36:18;0.33;;;0.33;;
23088;SDS011;11713;48.506;8.966;2023-12-20T03:38:45;0.40;;;0.40;;
23088;SDS011;11713;48.506;8.966;2023-12-20T03:41:11;0.50;;;0.50;;
23088;SDS011;11713;48.506;8.966;2023-12-20T03:43:37;1.00;;;0.60;;
23088;SDS011;11713;48.506;8.966;2023-12-20T03:46:03;0.40;;;0.40;;
23088;SDS011;11713;48.506;8.966;2023-12-20T03:48:29;0.30;;;0.30;;
23088;SDS011;11713;48.506;8.966;2023-12-20T03:50:58;0.40;;;0.40;;
23088;SDS011;11713;48.506;8.966;2023-12-20T03:53:24;0.77;;;0.77;;
23088;SDS011;11713;48.506;8.966;2023-12-20T03:55:49;0.67;;;0.60;;
23088;SDS011;11713;48.506;8.966;2023-12-20T03:58:15;0.60;;;0.60;;
23088;SDS011;11713;48.506;8.966;2023-12-20T04:00:41;0.80;;;0.60;;
23088;SDS011;11713;48.506;8.966;2023-12-20T04:03:07;0.77;;;0.50;;
23088;SDS011;11713;48.506;8.966;2023-12-20T04:05:32;0.73;;;0.60;;
23088;SDS011;11713;48.506;8.966;2023-12-20T04:07:59;1.33;;;0.67;;
23088;SDS011;11713;48.506;8.966;2023-12-20T04:10:26;0.60;;;0.60;;
23088;SDS011;11713;48.506;8.966;2023-12-20T04:12:53;0.70;;;0.70;;
23088;SDS011;11713;48.506;8.966;2023-12-20T04:15:20;1.30;;;0.90;;
23088;SDS011;11713;48.506;8.966;2023-12-20T04:17:45;0.70;;;0.70;;
23088;SDS011;11713;48.506;8.966;2023-12-20T04:20:11;0.67;;;0.67;;
23088;SDS011;11713;48.506;8.966;2023-12-20T04:22:37;0.60;;;0.60;;
23088;SDS011;11713;48.506;8.966;2023-12-20T04:25:03;0.70;;;0.50;;
23088;SDS011;11713;48.506;8.966;2023-12-20T04:27:29;0.40;;;0.40;;
23088;SDS011;11713;48.506;8.966;2023-12-20T04:29:55;0.50;;;0.40;;
23088;SDS011;11713;48.506;8.966;2023-12-20T04:32:20;0.30;;;0.30;;
23088;SDS011;11713;48.506;8.966;2023-12-20T04:34:46;0.30;;;0.30;;
23088;SDS011;11713;48.506;8.966;2023-12-20T04:37:12;0.23;;;0.23;;
23088;SDS011;11713;48.506;8.966;2023-12-20T04:39:38;0.30;;;0.30;;
23088;SDS011;11713;48.506;8.966;2023-12-20T04:42:04;0.30;;;0.30;;
23088;SDS011;11713;48.506;8.966;2023-12-20T04:44:30;0.40;;;0.40;;
23088;SDS011;11713;48.506;8.966;2023-12-20T04:46:57;0.60;;;0.60;;
23088;SDS011;11713;48.506;8.966;2023-12-20T04:49:23;0.37;;;0.37;;
23088;SDS011;11713;48.506;8.966;2023-12-20T04:51:49;0.50;;;0.50;;
23088;SDS011;11713;48.506;8.966;2023-12-20T04:54:15;0.40;;;0.40;;
23088;SDS011;11713;48.506;8.966;2023-12-20T04:56:41;0.50;;;0.50;;
23088;SDS011;11713;48.506;8.966;2023-12-20T04:59:07;0.50;;;0.30;;
23088;SDS011;11713;48.506;8.966;2023-12-20T05:01:35;0.40;;;0.40;;
23088;SDS011;11713;48.506;8.966;2023-12-20T05:04:01;0.40;;;0.40;;
23088;SDS011;11713;48.506;8.966;2023-12-20T05:06:27;0.60;;;0.60;;
23088;SDS011;11713;48.506;8.966;2023-12-20T05:08:54;1.33;;;0.50;;
23088;SDS011;11713;48.506;8.966;2023-12-20T05:11:20;0.53;;;0.50;;
23088;SDS011;11713;48.506;8.966;2023-12-20T05:13:46;0.90;;;0.90;;
23088;SDS011;11713;48.506;8.966;2023-12-20T05:16:12;0.80;;;0.80;;
23088;SDS011;11713;48.506;8.966;2023-12-20T05:18:39;0.63;;;0.63;;
23088;SDS011;11713;48.506;8.966;2023-12-20T05:21:05;0.40;;;0.40;;
23088;SDS011;11713;48.506;8.966;2023-12-20T05:23:33;0.47;;;0.47;;
23088;SDS011;11713;48.506;8.966;2023-12-20T05:25:59;0.60;;;0.60;;
23088;SDS011;11713;48.506;8.966;2023-12-20T05:28:24;0.60;;;0.60;;
23088;SDS011;11713;48.506;8.966;2023-12-20T05:30:51;1.53;;;0.90;;
23088;SDS011;11713;48.506;8.966;2023-12-20T05:33:16;0.57;;;0.57;;
23088;SDS011;11713;48.506;8.966;2023-12-20T05:35:42;0.50;;;0.50;;
23088;SDS011;11713;48.506;8.966;2023-12-20T05:38:09;0.60;;;0.60;;
23088;SDS011;11713;48.506;8.966;2023-12-20T05:40:34;0.63;;;0.63;;
23088;SDS011;11713;48.506;8.966;2023-12-20T05:43:00;0.50;;;0.50;;
23088;SDS011;11713;48.506;8.966;2023-12-20T05:45:26;0.63;;;0.60;;
23088;SDS011;11713;48.506;8.966;2023-12-20T05:47:51;1.00;;;0.90;;
23088;SDS011;11713;48.506;8.966;2023-12-20T05:50:17;0.70;;;0.70;;
23088;SDS011;11713;48.506;8.966;2023-12-20T05:52:43;0.70;;;0.70;;
23088;SDS011;11713;48.506;8.966;2023-12-20T05:55:09;0.60;;;0.60;;
23088;SDS011;11713;48.506;8.966;2023-12-20T05:57:35;0.80;;;0.60;;
23088;SDS011;11713;48.506;8.966;2023-12-20T06:00:01;0.53;;;0.53;;
23088;SDS011;11713;48.506;8.966;2023-12-20T06:02:26;0.73;;;0.70;;
23088;SDS011;11713;48.506;8.966;2023-12-20T06:04:52;0.80;;;0.70;;
23088;SDS011;11713;48.506;8.966;2023-12-20T06:07:18;1.10;;;1.00;;
23088;SDS011;11713;48.506;8.966;2023-12-20T06:09:44;0.80;;;0.80;;
23088;SDS011;11713;48.506;8.966;2023-12-20T06:12:10;1.70;;;1.60;;
23088;SDS011;11713;48.506;8.966;2023-12-20T06:14:36;1.40;;;1.23;;
23088;SDS011;11713;48.506;8.966;2023-12-20T06:17:02;1.37;;;0.90;;
23088;SDS011;11713;48.506;8.966;2023-12-20T06:19:28;0.70;;;0.70;;
23088;SDS011;11713;48.506;8.966;2023-12-20T06:21:54;0.40;;;0.40;;
23088;SDS011;11713;48.506;8.966;2023-12-20T06:24:20;1.17;;;0.83;;
23088;SDS011;11713;48.506;8.966;2023-12-20T06:26:46;1.00;;;0.90;;
23088;SDS011;11713;48.506;8.966;2023-12-20T06:29:13;1.00;;;0.90;;
23088;SDS011;11713;48.506;8.966;2023-12-20T06:31:40;0.60;;;0.60;;
23088;SDS011;11713;48.506;8.966;2023-12-20T06:34:08;0.70;;;0.70;;
23088;SDS011;11713;48.506;8.966;2023-12-20T06:36:34;1.77;;;0.77;;
23088;SDS011;11713;48.506;8.966;2023-12-20T06:39:00;1.27;;;0.80;;
23088;SDS011;11713;48.506;8.966;2023-12-20T06:41:26;1.17;;;1.00;;
23088;SDS011;11713;48.506;8.966;2023-12-20T06:43:52;1.27;;;1.17;;
23088;SDS011;11713;48.506;8.966;2023-12-20T06:46:18;1.47;;;1.10;;
23088;SDS011;11713;48.506;8.966;2023-12-20T06:48:44;3.40;;;2.50;;
23088;SDS011;11713;48.506;8.966;2023-12-20T06:51:14;2.87;;;2.20;;
23088;SDS011;11713;48.506;8.966;2023-12-20T06:53:41;3.43;;;2.60;;
23088;SDS011;11713;48.506;8.966;2023-12-20T06:56:08;4.30;;;3.27;;
23088;SDS011;11713;48.506;8.966;2023-12-20T06:58:35;5.47;;;3.50;;
23088;SDS011;11713;48.506;8.966;2023-12-20T07:01:02;3.00;;;2.70;;
23088;SDS011;11713;48.506;8.966;2023-12-20T07:03:29;3.70;;;3.00;;
23088;SDS011;11713;48.506;8.966;2023-12-20T07:05:55;1.87;;;1.53;;
23088;SDS011;11713;48.506;8.966;2023-12-20T07:08:21;1.63;;;1.30;;
23088;SDS011;11713;48.506;8.966;2023-12-20T07:10:46;1.43;;;1.30;;
23088;SDS011;11713;48.506;8.966;2023-12-20T07:13:12;6.93;;;3.50;;
23088;SDS011;11713;48.506;8.966;2023-12-20T07:15:39;8.67;;;4.67;;
23088;SDS011;11713;48.506;8.966;2023-12-20T07:18:05;3.33;;;2.63;;
23088;SDS011;11713;48.506;8.966;2023-12-20T07:20:31;1.80;;;1.50;;
23088;SDS011;11713;48.506;8.966;2023-12-20T07:22:57;3.10;;;1.87;;
23088;SDS011;11713;48.506;8.966;2023-12-20T07:25:23;2.53;;;1.53;;
23088;SDS011;11713;48.506;8.966;2023-12-20T07:27:49;2.33;;;1.20;;
23088;SDS011;11713;48.506;8.966;2023-12-20T07:30:14;0.87;;;0.87;;
23088;SDS011;11713;48.506;8.966;2023-12-20T07:32:40;1.23;;;0.80;;
23088;SDS011;11713;48.506;8.966;2023-12-20T07:35:06;1.37;;;1.27;;
23088;SDS011;11713;48.506;8.966;2023-12-20T07:37:32;2.30;;;2.10;;
23088;SDS011;11713;48.506;8.966;2023-12-20T07:39:58;2.80;;;2.50;;
23088;SDS011;11713;48.506;8.966;2023-12-20T07:42:23;1.40;;;1.30;;
23088;SDS011;11713;48.506;8.966;2023-12-20T07:44:49;2.20;;;1.30;;
23088;SDS011;11713;48.506;8.966;2023-12-20T07:47:15;0.97;;;0.77;;
23088;SDS011;11713;48.506;8.966;2023-12-20T07:49:44;1.10;;;1.00;;
23088;SDS011;11713;48.506;8.966;2023-12-20T07:52:10;2.13;;;1.93;;
23088;SDS011;11713;48.506;8.966;2023-12-20T07:54:35;1.30;;;1.20;;
23088;SDS011;11713;48.506;8.966;2023-12-20T07:57:01;2.77;;;1.80;;
23088;SDS011;11713;48.506;8.966;2023-12-20T07:59:27;2.07;;;1.40;;
23088;SDS011;11713;48.506;8.966;2023-12-20T08:01:53;1.83;;;1.60;;
23088;SDS011;11713;48.506;8.966;2023-12-20T08:04:19;1.70;;;1.60;;
23088;SDS011;11713;48.506;8.966;2023-12-20T08:06:45;3.00;;;1.90;;
23088;SDS011;11713;48.506;8.966;2023-12-20T08:09:10;2.27;;;1.37;;
23088;SDS011;11713;48.506;8.966;2023-12-20T08:11:36;1.27;;;1.13;;
23088;SDS011;11713;48.506;8.966;2023-12-20T08:14:02;3.60;;;2.00;;
23088;SDS011;11713;48.506;8.966;2023-12-20T08:16:28;2.27;;;1.97;;
23088;SDS011;11713;48.506;8.966;2023-12-20T08:18:53;2.50;;;2.30;;
23088;SDS011;11713;48.506;8.966;2023-12-20T08:21:19;1.07;;;1.07;;
23088;SDS011;11713;48.506;8.966;2023-12-20T08:23:47;1.20;;;1.10;;
23088;SDS011;11713;48.506;8.966;2023-12-20T08:26:13;1.97;;;1.53;;
23088;SDS011;11713;48.506;8.966;2023-12-20T08:28:39;2.20;;;2.00;;
23088;SDS011;11713;48.506;8.966;2023-12-20T08:31:05;4.43;;;2.70;;
23088;SDS011;11713;48.506;8.966;2023-12-20T08:33:30;3.63;;;2.67;;
23088;SDS011;11713;48.506;8.966;2023-12-20T08:35:56;4.23;;;2.00;;
23088;SDS011;11713;48.506;8.966;2023-12-20T08:38:22;2.13;;;1.90;;
23088;SDS011;11713;48.506;8.966;2023-12-20T08:40:48;3.07;;;2.20;;
23088;SDS011;11713;48.506;8.966;2023-12-20T08:43:14;4.67;;;2.30;;
23088;SDS011;11713;48.506;8.966;2023-12-20T08:45:41;2.73;;;2.53;;
23088;SDS011;11713;48.506;8.966;2023-12-20T08:48:07;2.23;;;2.03;;
23088;SDS011;11713;48.506;8.966;2023-12-20T08:50:32;1.00;;;0.90;;
23088;SDS011;11713;48.506;8.966;2023-12-20T08:52:59;2.17;;;1.93;;
23088;SDS011;11713;48.506;8.966;2023-12-20T08:55:24;4.60;;;3.00;;
23088;SDS011;11713;48.506;8.966;2023-12-20T08:57:51;6.50;;;4.50;;
23088;SDS011;11713;48.506;8.966;2023-12-20T09:00:17;6.17;;;3.20;;
23088;SDS011;11713;48.506;8.966;2023-12-20T09:02:46;1.77;;;1.43;;
23088;SDS011;11713;48.506;8.966;2023-12-20T09:05:11;2.10;;;1.20;;
23088;SDS011;11713;48.506;8.966;2023-12-20T09:07:37;1.50;;;1.13;;
23088;SDS011;11713;48.506;8.966;2023-12-20T09:10:03;1.10;;;1.00;;
23088;SDS011;11713;48.506;8.966;2023-12-20T09:12:29;1.73;;;1.30;;
23088;SDS011;11713;48.506;8.966;2023-12-20T09:14:55;1.40;;;1.17;;
23088;SDS011;11713;48.506;8.966;2023-12-20T09:17:20;3.00;;;1.43;;
23088;SDS011;11713;48.506;8.966;2023-12-20T09:19:48;1.60;;;1.37;;
23088;SDS011;11713;48.506;8.966;2023-12-20T09:22:14;2.40;;;1.77;;
23088;SDS011;11713;48.506;8.966;2023-12-20T09:24:39;4.17;;;1.60;;
23088;SDS011;11713;48.506;8.966;2023-12-20T09:27:05;3.00;;;1.40;;
23088;SDS011;11713;48.506;8.966;2023-12-20T09:29:31;4.70;;;1.63;;
23088;SDS011;11713;48.506;8.966;2023-12-20T09:31:57;2.87;;;1.20;;
23088;SDS011;11713;48.506;8.966;2023-12-20T09:34:23;2.37;;;1.33;;
23088;SDS011;11713;48.506;8.966;2023-12-20T09:36:51;2.70;;;1.20;;
23088;SDS011;11713;48.506;8.966;2023-12-20T09:39:17;2.23;;;1.53;;
23088;SDS011;11713;48.506;8.966;2023-12-20T09:41:44;3.77;;;1.50;;
23088;SDS011;11713;48.506;8.966;2023-12-20T09:44:16;2.83;;;1.40;;
23088;SDS011;11713;48.506;8.966;2023-12-20T09:46:44;1.30;;;1.10;;
23088;SDS011;11713;48.506;8.966;2023-12-20T09:49:11;2.97;;;1.50;;
23088;SDS011;11713;48.506;8.966;2023-12-20T09:51:38;5.40;;;1.73;;
23088;SDS011;11713;48.506;8.966;2023-12-20T09:54:06;3.43;;;1.97;;
23088;SDS011;11713;48.506;8.966;2023-12-20T09:56:31;4.63;;;1.70;;
23088;SDS011;11713;48.506;8.966;2023-12-20T09:58:59;3.87;;;1.67;;
23088;SDS011;11713;48.506;8.966;2023-12-20T10:01:25;3.20;;;2.30;;
23088;SDS011;11713;48.506;8.966;2023-12-20T10:03:52;4.57;;;2.23;;
23088;SDS011;11713;48.506;8.966;2023-12-20T10:06:20;7.87;;;2.60;;
23088;SDS011;11713;48.506;8.966;2023-12-20T10:08:47;4.77;;;2.00;;
23088;SDS011;11713;48.506;8.966;2023-12-20T10:11:13;3.87;;;1.97;;
23088;SDS011;11713;48.506;8.966;2023-12-20T10:13:39;1.80;;;1.60;;
23088;SDS011;11713;48.506;8.966;2023-12-20T10:16:09;3.70;;;1.30;;
23088;SDS011;11713;48.506;8.966;2023-12-20T10:18:35;4.30;;;1.37;;
23088;SDS011;11713;48.506;8.966;2023-12-20T10:21:01;2.67;;;1.60;;
23088;SDS011;11713;48.506;8.966;2023-12-20T10:23:28;4.73;;;1.83;;
23088;SDS011;11713;48.506;8.966;2023-12-20T10:25:56;3.37;;;1.73;;
23088;SDS011;11713;48.506;8.966;2023-12-20T10:28:25;2.87;;;1.60;;
23088;SDS011;11713;48.506;8.966;2023-12-20T10:30:55;4.97;;;1.90;;
23088;SDS011;11713;48.506;8.966;2023-12-20T10:33:24;6.90;;;1.90;;
23088;SDS011;11713;48.506;8.966;2023-12-20T10:35:51;3.50;;;1.63;;
23088;SDS011;11713;48.506;8.966;2023-12-20T10:38:17;4.27;;;1.50;;
23088;SDS011;11713;48.506;8.966;2023-12-20T10:40:44;2.17;;;1.33;;
23088;SDS011;11713;48.506;8.966;2023-12-20T10:43:11;1.93;;;1.20;;
23088;SDS011;11713;48.506;8.966;2023-12-20T10:45:37;6.30;;;1.53;;
23088;SDS011;11713;48.506;8.966;2023-12-20T10:48:03;2.13;;;1.47;;
23088;SDS011;11713;48.506;8.966;2023-12-20T10:50:30;3.60;;;1.43;;
23088;SDS011;11713;48.506;8.966;2023-12-20T10:52:56;4.00;;;1.40;;
23088;SDS011;11713;48.506;8.966;2023-12-20T10:55:24;2.80;;;1.60;;
23088;SDS011;11713;48.506;8.966;2023-12-20T10:57:50;3.53;;;1.57;;
23088;SDS011;11713;48.506;8.966;2023-12-20T11:00:19;3.40;;;1.30;;
23088;SDS011;11713;48.506;8.966;2023-12-20T11:02:49;1.73;;;1.10;;
23088;SDS011;11713;48.506;8.966;2023-12-20T11:05:22;2.70;;;1.37;;
23088;SDS011;11713;48.506;8.966;2023-12-20T11:08:14;5.47;;;2.17;;
23088;SDS011;11713;48.506;8.966;2023-12-20T11:13:23;2.40;;;1.43;;
23088;SDS011;11713;48.506;8.966;2023-12-20T11:15:55;6.17;;;2.60;;
23088;SDS011;11713;48.506;8.966;2023-12-20T11:18:25;3.47;;;1.93;;
23088;SDS011;11713;48.506;8.966;2023-12-20T11:20:54;2.73;;;1.93;;
23088;SDS011;11713;48.506;8.966;2023-12-20T11:23:20;4.40;;;2.10;;
23088;SDS011;11713;48.506;8.966;2023-12-20T11:25:53;3.33;;;2.70;;
23088;SDS011;11713;48.506;8.966;2023-12-20T11:28:24;2.83;;;1.80;;
23088;SDS011;11713;48.506;8.966;2023-12-20T11:30:51;4.37;;;2.30;;
23088;SDS011;11713;48.506;8.966;2023-12-20T11:33:23;3.73;;;1.87;;
23088;SDS011;11713;48.506;8.966;2023-12-20T11:35:51;3.33;;;1.93;;
23088;SDS011;11713;48.506;8.966;2023-12-20T11:38:23;2.40;;;1.60;;
23088;SDS011;11713;48.506;8.966;2023-12-20T11:40:51;3.70;;;2.43;;
23088;SDS011;11713;48.506;8.966;2023-12-20T11:43:31;3.00;;;1.70;;
23088;SDS011;11713;48.506;8.966;2023-12-20T11:46:08;2.40;;;1.33;;
23088;SDS011;11713;48.506;8.966;2023-12-20T11:48:36;3.90;;;1.70;;
23088;SDS011;11713;48.506;8.966;2023-12-20T11:51:10;3.27;;;1.60;;
23088;SDS011;11713;48.506;8.966;2023-12-20T11:53:38;3.10;;;1.57;;
23088;SDS011;11713;48.506;8.966;2023-12-20T11:56:11;2.87;;;1.40;;
23088;SDS011;11713;48.506;8.966;2023-12-20T11:58:38;4.20;;;1.57;;
23088;SDS011;11713;48.506;8.966;2023-12-20T12:01:04;5.67;;;1.60;;
23088;SDS011;11713;48.506;8.966;2023-12-20T12:03:33;2.90;;;1.40;;
23088;SDS011;11713;48.506;8.966;2023-12-20T12:05:59;4.63;;;2.03;;
23088;SDS011;11713;48.506;8.966;2023-12-20T12:08:26;2.53;;;1.30;;
23088;SDS011;11713;48.506;8.966;2023-12-20T12:10:54;5.90;;;1.47;;
23088;SDS011;11713;48.506;8.966;2023-12-20T12:13:22;4.50;;;1.70;;
23088;SDS011;11713;48.506;8.966;2023-12-20T12:15:54;5.50;;;1.83;;
23088;SDS011;11713;48.506;8.966;2023-12-20T12:18:20;5.33;;;1.60;;
23088;SDS011;11713;48.506;8.966;2023-12-20T12:20:46;3.87;;;1.30;;
23088;SDS011;11713;48.506;8.966;2023-12-20T12:23:12;4.43;;;1.30;;
23088;SDS011;11713;48.506;8.966;2023-12-20T12:25:38;5.07;;;1.60;;
23088;SDS011;11713;48.506;8.966;2023-12-20T12:28:04;4.90;;;1.90;;
23088;SDS011;11713;48.506;8.966;2023-12-20T12:30:30;4.07;;;1.47;;
23088;SDS011;11713;48.506;8.966;2023-12-20T12:32:56;6.27;;;2.27;;
23088;SDS011;11713;48.506;8.966;2023-12-20T12:35:23;9.13;;;2.70;;
23088;SDS011;11713;48.506;8.966;2023-12-20T12:37:49;10.10;;;2.10;;
23088;SDS011;11713;48.506;8.966;2023-12-20T12:40:16;4.57;;;2.00;;
23088;SDS011;11713;48.506;8.966;2023-12-20T12:42:43;5.27;;;1.50;;
23088;SDS011;11713;48.506;8.966;2023-12-20T12:45:10;5.10;;;1.73;;
23088;SDS011;11713;48.506;8.966;2023-12-20T12:47:39;6.13;;;1.80;;
23088;SDS011;11713;48.506;8.966;2023-12-20T12:50:06;3.93;;;1.40;;
23088;SDS011;11713;48.506;8.966;2023-12-20T12:52:32;4.40;;;1.30;;
23088;SDS011;11713;48.506;8.966;2023-12-20T12:55:00;5.83;;;1.40;;
23088;SDS011;11713;48.506;8.966;2023-12-20T12:57:27;3.53;;;1.33;;
23088;SDS011;11713;48.506;8.966;2023-12-20T12:59:53;4.63;;;1.30;;
23088;SDS011;11713;48.506;8.966;2023-12-20T13:02:19;4.87;;;1.60;;
23088;SDS011;11713;48.506;8.966;2023-12-20T13:04:45;3.83;;;1.30;;
23088;SDS011;11713;48.506;8.966;2023-12-20T13:07:15;4.67;;;1.63;;
23088;SDS011;11713;48.506;8.966;2023-12-20T13:09:47;4.63;;;1.23;;
23088;SDS011;11713;48.506;8.966;2023-12-20T13:12:16;3.60;;;1.50;;
23088;SDS011;11713;48.506;8.966;2023-12-20T13:14:41;5.07;;;1.30;;
23088;SDS011;11713;48.506;8.966;2023-12-20T13:17:07;5.53;;;1.53;;
23088;SDS011;11713;48.506;8.966;2023-12-20T13:19:33;6.33;;;1.33;;
23088;SDS011;11713;48.506;8.966;2023-12-20T13:21:59;4.13;;;1.10;;
23088;SDS011;11713;48.506;8.966;2023-12-20T13:24:24;3.03;;;1.47;;
23088;SDS011;11713;48.506;8.966;2023-12-20T13:26:50;4.10;;;1.27;;
23088;SDS011;11713;48.506;8.966;2023-12-20T13:29:16;6.60;;;1.40;;
23088;SDS011;11713;48.506;8.966;2023-12-20T13:31:42;3.87;;;1.30;;
23088;SDS011;11713;48.506;8.966;2023-12-20T13:34:08;5.30;;;1.30;;
23088;SDS011;11713;48.506;8.966;2023-12-20T13:36:34;3.83;;;1.43;;
23088;SDS011;11713;48.506;8.966;2023-12-20T13:39:01;4.67;;;1.23;;
23088;SDS011;11713;48.506;8.966;2023-12-20T13:41:30;3.97;;;1.20;;
23088;SDS011;11713;48.506;8.966;2023-12-20T13:43:57;6.80;;;1.30;;
23088;SDS011;11713;48.506;8.966;2023-12-20T13:46:23;3.20;;;1.40;;
23088;SDS011;11713;48.506;8.966;2023-12-20T13:48:49;4.50;;;1.50;;
23088;SDS011;11713;48.506;8.966;2023-12-20T13:51:15;3.70;;;1.37;;
23088;SDS011;11713;48.506;8.966;2023-12-20T13:53:41;4.43;;;1.20;;
23088;SDS011;11713;48.506;8.966;2023-12-20T13:56:06;4.03;;;1.40;;
23088;SDS011;11713;48.506;8.966;2023-12-20T13:58:32;6.50;;;1.93;;
23088;SDS011;11713;48.506;8.966;2023-12-20T14:00:58;5.37;;;2.30;;
23088;SDS011;11713;48.506;8.966;2023-12-20T14:03:24;3.50;;;1.20;;
23088;SDS011;11713;48.506;8.966;2023-12-20T14:05:50;4.67;;;1.40;;
23088;SDS011;11713;48.506;8.966;2023-12-20T14:08:15;4.53;;;1.40;;
23088;SDS011;11713;48.506;8.966;2023-12-20T14:10:41;2.93;;;1.37;;
23088;SDS011;11713;48.506;8.966;2023-12-20T14:13:07;4.37;;;1.33;;
23088;SDS011;11713;48.506;8.966;2023-12-20T14:15:34;3.27;;;1.47;;
23088;SDS011;11713;48.506;8.966;2023-12-20T14:18:06;2.83;;;1.60;;
23088;SDS011;11713;48.506;8.966;2023-12-20T14:20:34;6.90;;;1.90;;
23088;SDS011;11713;48.506;8.966;2023-12-20T14:23:09;3.33;;;1.87;;
23088;SDS011;11713;48.506;8.966;2023-12-20T14:25:38;6.83;;;2.47;;
23088;SDS011;11713;48.506;8.966;2023-12-20T14:28:04;5.90;;;3.23;;
23088;SDS011;11713;48.506;8.966;2023-12-20T14:30:30;3.77;;;1.70;;
23088;SDS011;11713;48.506;8.966;2023-12-20T14:32:57;5.00;;;1.80;;
23088;SDS011;11713;48.506;8.966;2023-12-20T14:35:30;5.53;;;2.00;;
23088;SDS011;11713;48.506;8.966;2023-12-20T14:37:56;5.33;;;1.83;;
23088;SDS011;11713;48.506;8.966;2023-12-20T14:40:22;5.83;;;1.93;;
23088;SDS011;11713;48.506;8.966;2023-12-20T14:42:48;4.97;;;1.67;;
23088;SDS011;11713;48.506;8.966;2023-12-20T14:45:17;3.80;;;1.70;;
23088;SDS011;11713;48.506;8.966;2023-12-20T14:47:50;7.53;;;2.80;;